<?xml version="1.0" encoding="UTF-8" standalone="no" ?>
<gpx xmlns="http://www.topografix.com/GPX/1/1" xmlns:xsi="http://www.w3.org/2001/XMLSchema-instance" xsi:schemaLocation="http://www.topografix.com/GPX/1/1 http://www.topografix.com/GPX/1/1/gpx.xsd" version="1.1" creator="VisuGPX - https://www.visugpx.com">
  <metadata>
    <name>Ballade du 09 mai 2014</name>
    <desc><![CDATA[Avec Pat et Marcel / Bandol - port d\'Alon]]></desc>
  </metadata>
  <trk>
    <name><![CDATA[1]]></name>
    <trkseg>
      <trkpt lat="43.13246" lon="5.74833">
        <ele>41.473999</ele>
        <time>2014-05-09T10:09:51Z</time>
      </trkpt>
      <trkpt lat="43.13247" lon="5.74833">
        <ele>41.473999</ele>
        <time>2014-05-09T10:09:52Z</time>
      </trkpt>
      <trkpt lat="43.13251" lon="5.74831">
        <ele>40.993408</ele>
        <time>2014-05-09T10:09:56Z</time>
      </trkpt>
      <trkpt lat="43.13255" lon="5.74826">
        <ele>41.954712</ele>
        <time>2014-05-09T10:10:01Z</time>
      </trkpt>
      <trkpt lat="43.13268" lon="5.7487">
        <ele>-1.785278</ele>
        <time>2014-05-09T10:10:08Z</time>
      </trkpt>
      <trkpt lat="43.13279" lon="5.74869">
        <ele>-3.707886</ele>
        <time>2014-05-09T10:10:18Z</time>
      </trkpt>
      <trkpt lat="43.13288" lon="5.74866">
        <ele>-5.149902</ele>
        <time>2014-05-09T10:10:27Z</time>
      </trkpt>
      <trkpt lat="43.133" lon="5.74863">
        <ele>-6.111206</ele>
        <time>2014-05-09T10:10:38Z</time>
      </trkpt>
      <trkpt lat="43.13307" lon="5.74864">
        <ele>-5.630493</ele>
        <time>2014-05-09T10:10:46Z</time>
      </trkpt>
      <trkpt lat="43.13309" lon="5.7487">
        <ele>-4.188599</ele>
        <time>2014-05-09T10:10:53Z</time>
      </trkpt>
      <trkpt lat="43.13309" lon="5.74872">
        <ele>-4.188599</ele>
        <time>2014-05-09T10:10:55Z</time>
      </trkpt>
      <trkpt lat="43.13311" lon="5.74877">
        <ele>-4.188599</ele>
        <time>2014-05-09T10:10:59Z</time>
      </trkpt>
      <trkpt lat="43.13307" lon="5.74886">
        <ele>-5.630493</ele>
        <time>2014-05-09T10:11:07Z</time>
      </trkpt>
      <trkpt lat="43.13298" lon="5.74894">
        <ele>-7.553101</ele>
        <time>2014-05-09T10:11:17Z</time>
      </trkpt>
      <trkpt lat="43.13297" lon="5.74896">
        <ele>-8.514648</ele>
        <time>2014-05-09T10:11:22Z</time>
      </trkpt>
      <trkpt lat="43.13297" lon="5.74896">
        <ele>-8.514648</ele>
        <time>2014-05-09T10:11:28Z</time>
      </trkpt>
    </trkseg>
  </trk>
</gpx>